createdAt,value
2022-11-29T00:01:04.192Z,6.92
2022-11-29T00:03:32.723Z,7.01
2022-11-29T00:06:14.043Z,7.06
2022-11-29T00:08:43.919Z,7.07
2022-11-29T00:11:39.216Z,7.03
2022-11-29T00:14:07.156Z,7.03
2022-11-29T00:16:34.014Z,7.06
2022-11-29T00:19:00.930Z,7.09
2022-11-29T00:21:27.856Z,7.09
2022-11-29T00:23:54.317Z,7.13
2022-11-29T00:26:22.095Z,7.05
2022-11-29T00:28:48.591Z,7.05
2022-11-29T00:31:15.596Z,7.03
2022-11-29T00:33:42.208Z,7.06
2022-11-29T00:36:08.708Z,7.13
2022-11-29T00:38:35.649Z,7.08
2022-11-29T00:41:02.124Z,7.04
2022-11-29T00:43:28.862Z,7.09
2022-11-29T00:45:57.248Z,7.11
2022-11-29T00:48:23.722Z,7.07
2022-11-29T00:50:50.519Z,7.12
2022-11-29T00:53:17.341Z,7.12
2022-11-29T00:55:45.138Z,7.12
2022-11-29T00:58:11.570Z,7.11
2022-11-29T01:00:38.316Z,7.11
2022-11-29T01:03:04.896Z,7.12
2022-11-29T01:05:31.932Z,7.13
2022-11-29T01:07:59.600Z,7.08
2022-11-29T01:10:26.729Z,7.04
2022-11-29T01:12:53.786Z,7.12
2022-11-29T01:15:20.621Z,7.13
2022-11-29T01:17:49.346Z,7.15
2022-11-29T01:20:16.270Z,7.09
2022-11-29T01:22:43.035Z,7.05
2022-11-29T01:25:11.648Z,7.10
2022-11-29T01:27:38.230Z,7.15
2022-11-29T01:30:07.067Z,7.09
2022-11-29T01:32:33.759Z,7.08
2022-11-29T01:35:00.180Z,7.08
2022-11-29T01:37:29.088Z,7.10
2022-11-29T01:39:55.473Z,7.05
2022-11-29T01:42:22.087Z,7.01
2022-11-29T01:45:03.454Z,6.86
2022-11-29T01:47:55.380Z,7.00
2022-11-29T01:50:42.806Z,7.11
2022-11-29T01:53:29.393Z,7.11
2022-11-29T01:56:16.592Z,7.05
2022-11-29T01:59:07.831Z,7.03
2022-11-29T02:02:01.497Z,7.10
2022-11-29T02:04:33.090Z,7.14
2022-11-29T02:06:59.952Z,7.00
2022-11-29T02:09:26.708Z,7.04
2022-11-29T02:12:00.591Z,7.08
2022-11-29T02:14:58.936Z,7.03
2022-11-29T02:17:56.927Z,7.03
2022-11-29T02:20:27.095Z,6.89
2022-11-29T02:23:07.538Z,6.82
2022-11-29T02:25:40.531Z,6.86
2022-11-29T02:28:41.002Z,6.93
2022-11-29T02:31:29.359Z,6.95
2022-11-29T02:34:20.880Z,6.95
2022-11-29T02:37:42.285Z,6.95
2022-11-29T02:40:41.563Z,7.04
2022-11-29T02:43:17.092Z,7.10
2022-11-29T02:45:56.588Z,7.11
2022-11-29T02:48:35.982Z,7.13
2022-11-29T02:51:17.913Z,7.09
2022-11-29T02:53:52.209Z,7.13
2022-11-29T02:57:01.262Z,7.11
2022-11-29T02:59:36.500Z,7.10
2022-11-29T03:02:20.108Z,7.15
2022-11-29T03:05:12.204Z,7.12
2022-11-29T03:07:53.585Z,7.07
2022-11-29T03:10:35.824Z,7.11
2022-11-29T03:13:05.363Z,7.13
2022-11-29T03:16:01.937Z,7.14
2022-11-29T03:18:36.530Z,7.13
2022-11-29T03:21:24.594Z,7.17
2022-11-29T03:23:55.059Z,7.12
2022-11-29T03:26:46.077Z,7.13
2022-11-29T03:29:26.681Z,7.09
2022-11-29T03:32:09.955Z,7.04
2022-11-29T03:34:45.568Z,7.05
2022-11-29T03:37:24.511Z,7.02
2022-11-29T03:39:59.366Z,7.04
2022-11-29T03:42:44.253Z,6.99
2022-11-29T03:45:35.020Z,6.97
2022-11-29T03:48:07.693Z,7.07
2022-11-29T03:50:44.236Z,7.10
2022-11-29T03:53:23.725Z,7.05
2022-11-29T03:55:55.318Z,7.07
2022-11-29T03:58:24.770Z,7.08
2022-11-29T04:01:26.835Z,7.05
2022-11-29T04:04:36.156Z,7.11
2022-11-29T04:07:27.481Z,7.09
2022-11-29T04:09:59.650Z,7.10
2022-11-29T04:12:36.031Z,7.07
2022-11-29T04:15:39.727Z,7.09
2022-11-29T04:18:13.115Z,7.09
2022-11-29T04:21:04.654Z,7.09
2022-11-29T04:24:13.487Z,7.12
2022-11-29T04:27:11.329Z,7.10
2022-11-29T04:30:15.294Z,7.01
2022-11-29T04:32:45.355Z,6.98
2022-11-29T04:35:30.759Z,6.96
2022-11-29T04:38:40.334Z,7.00
2022-11-29T04:41:50.127Z,7.03
2022-11-29T04:44:27.329Z,7.01
2022-11-29T04:47:26.540Z,6.95
2022-11-29T04:50:12.788Z,6.91
2022-11-29T04:52:56.018Z,6.84
2022-11-29T04:55:49.481Z,6.89
2022-11-29T04:58:39.685Z,6.90
2022-11-29T05:01:30.293Z,6.94
2022-11-29T05:04:06.592Z,6.82
2022-11-29T05:06:50.588Z,6.80
2022-11-29T05:09:35.810Z,6.91
2022-11-29T05:12:06.056Z,6.89
2022-11-29T05:14:54.005Z,6.87
2022-11-29T05:17:50.625Z,6.85
2022-11-29T05:20:41.454Z,6.77
2022-11-29T05:23:24.678Z,6.77
2022-11-29T05:26:05.114Z,6.88
2022-11-29T05:28:51.215Z,6.85
2022-11-29T05:31:30.715Z,6.90
2022-11-29T05:34:19.117Z,6.83
2022-11-29T05:37:10.343Z,6.93
2022-11-29T05:39:41.241Z,6.96
2022-11-29T05:42:52.009Z,6.94
2022-11-29T05:45:27.494Z,6.98
2022-11-29T05:48:02.466Z,6.96
2022-11-29T05:50:39.950Z,6.98
2022-11-29T05:53:28.014Z,6.98
2022-11-29T05:56:11.395Z,6.88
2022-11-29T05:58:48.820Z,6.91
2022-11-29T06:01:29.816Z,6.96
2022-11-29T06:04:19.470Z,6.98
2022-11-29T06:06:50.756Z,6.97
2022-11-29T06:09:39.740Z,6.92
2022-11-29T06:12:18.252Z,6.92
2022-11-29T06:15:13.542Z,6.97
2022-11-29T06:18:02.088Z,6.93
2022-11-29T06:21:06.282Z,6.87
2022-11-29T06:23:51.372Z,6.83
2022-11-29T06:26:36.205Z,6.89
2022-11-29T06:29:25.274Z,6.91
2022-11-29T06:32:03.097Z,6.83
2022-11-29T06:34:37.703Z,6.80
2022-11-29T06:37:16.448Z,6.77
2022-11-29T06:39:43.700Z,6.91
2022-11-29T06:42:10.250Z,6.92
2022-11-29T06:44:37.058Z,6.92
2022-11-29T06:47:08.484Z,6.96
2022-11-29T06:50:01.553Z,6.88
2022-11-29T06:52:46.580Z,6.91
2022-11-29T06:55:40.407Z,6.91
2022-11-29T06:58:06.941Z,6.90
2022-11-29T07:00:43.694Z,6.93
2022-11-29T07:03:38.535Z,6.93
2022-11-29T07:06:15.512Z,6.95
2022-11-29T07:08:42.846Z,6.92
2022-11-29T07:11:13.428Z,6.84
2022-11-29T07:13:40.248Z,6.91
2022-11-29T07:16:17.379Z,6.97
2022-11-29T07:19:00.910Z,6.96
2022-11-29T07:21:58.572Z,6.94
2022-11-29T07:24:51.098Z,6.94
2022-11-29T07:27:29.651Z,6.88
2022-11-29T07:30:51.009Z,6.91
2022-11-29T07:33:29.357Z,6.71
2022-11-29T07:36:09.217Z,6.82
2022-11-29T07:38:54.260Z,6.72
2022-11-29T07:41:32.105Z,6.75
2022-11-29T07:44:11.533Z,6.62
2022-11-29T07:46:38.385Z,6.69
2022-11-29T07:49:06.090Z,6.76
2022-11-29T07:51:32.714Z,6.76
2022-11-29T07:53:59.941Z,6.78
2022-11-29T07:56:26.480Z,6.80
2022-11-29T07:58:53.092Z,6.71
2022-11-29T08:01:20.208Z,6.74
2022-11-29T08:03:46.777Z,6.76
2022-11-29T08:06:13.327Z,6.86
2022-11-29T08:08:43.904Z,6.88
2022-11-29T08:11:12.562Z,6.80
2022-11-29T08:13:39.267Z,6.82
2022-11-29T08:16:06.510Z,6.84
2022-11-29T08:18:33.538Z,6.84
2022-11-29T08:21:05.852Z,6.95
2022-11-29T08:23:32.425Z,6.81
2022-11-29T08:26:01.003Z,6.67
2022-11-29T08:28:27.524Z,6.69
2022-11-29T08:31:06.096Z,6.89
2022-11-29T08:33:35.882Z,6.94
2022-11-29T08:36:15.366Z,6.86
2022-11-29T08:38:42.130Z,6.95
2022-11-29T08:41:10.945Z,7.01
2022-11-29T08:43:37.749Z,6.94
2022-11-29T08:46:04.392Z,6.88
2022-11-29T08:48:31.273Z,7.00
2022-11-29T08:50:58.152Z,6.92
2022-11-29T08:53:44.544Z,7.03
2022-11-29T08:57:04.280Z,7.12
2022-11-29T08:59:05.998Z,7.01
2022-11-29T09:01:32.635Z,7.10
2022-11-29T09:04:07.266Z,7.17
2022-11-29T09:06:44.359Z,7.20
2022-11-29T09:09:11.137Z,7.22
2022-11-29T09:11:37.610Z,7.18
2022-11-29T09:14:07.233Z,7.07
2022-11-29T09:16:38.395Z,7.03
2022-11-29T09:19:05.814Z,7.16
2022-11-29T09:21:37.623Z,7.06
2022-11-29T09:24:06.407Z,7.09
2022-11-29T09:26:35.656Z,7.14
2022-11-29T09:29:04.364Z,6.91
2022-11-29T09:31:31.769Z,7.05
2022-11-29T09:33:58.669Z,7.05
2022-11-29T09:36:28.928Z,7.11
2022-11-29T09:38:55.911Z,7.25
2022-11-29T09:41:49.778Z,7.13
2022-11-29T09:44:48.811Z,7.23
2022-11-29T09:47:40.127Z,7.19
2022-11-29T09:50:31.225Z,7.28
2022-11-29T09:53:45.899Z,7.25
2022-11-29T09:56:26.783Z,7.23
2022-11-29T09:59:09.633Z,7.39
2022-11-29T10:01:45.276Z,7.49
2022-11-29T10:04:19.836Z,7.49
2022-11-29T10:06:58.912Z,7.54
2022-11-29T10:09:44.438Z,7.54
2022-11-29T10:12:17.218Z,7.53
2022-11-29T10:14:50.070Z,7.48
2022-11-29T10:17:39.908Z,7.52
2022-11-29T10:20:16.726Z,7.47
2022-11-29T10:23:03.241Z,7.42
2022-11-29T10:25:35.781Z,7.45
2022-11-29T10:28:05.179Z,7.56
2022-11-29T10:30:35.610Z,7.64
2022-11-29T10:33:02.903Z,7.44
2022-11-29T10:35:35.879Z,7.50
2022-11-29T10:40:58.947Z,7.46
2022-11-29T10:43:26.417Z,7.57
2022-11-29T10:45:56.293Z,7.62
2022-11-29T10:48:27.215Z,7.71
2022-11-29T10:50:54.216Z,7.61
2022-11-29T10:53:37.377Z,7.73
2022-11-29T10:56:08.752Z,7.81
2022-11-29T10:58:36.094Z,7.85
2022-11-29T11:01:07.632Z,7.83
2022-11-29T11:03:42.249Z,7.81
2022-11-29T11:06:15.576Z,7.87
2022-11-29T11:09:12.780Z,7.85
2022-11-29T11:11:40.180Z,7.95
2022-11-29T11:14:23.907Z,7.99
2022-11-29T11:16:51.743Z,8.01
2022-11-29T11:19:32.926Z,8.09
2022-11-29T11:22:01.820Z,8.14
2022-11-29T11:24:31.271Z,8.20
2022-11-29T11:26:58.802Z,8.03
2022-11-29T11:29:33.568Z,8.07
2022-11-29T11:32:00.694Z,8.20
2022-11-29T11:34:34.258Z,8.13
2022-11-29T11:37:19.232Z,8.23
2022-11-29T11:39:48.897Z,8.29
2022-11-29T11:42:38.604Z,8.31
2022-11-29T11:45:11.181Z,8.26
2022-11-29T11:47:51.456Z,8.20
2022-11-29T11:50:32.717Z,8.16
2022-11-29T11:53:03.897Z,8.01
2022-11-29T11:55:33.060Z,8.13
2022-11-29T11:58:12.006Z,8.01
2022-11-29T12:03:40.703Z,8.05
2022-11-29T12:06:25.710Z,8.13
2022-11-29T12:09:21.684Z,8.21
2022-11-29T12:12:02.085Z,8.18
2022-11-29T12:14:51.755Z,8.20
2022-11-29T12:17:36.961Z,8.10
2022-11-29T12:20:20.486Z,8.02
2022-11-29T12:22:53.092Z,8.06
2022-11-29T12:25:26.391Z,8.17
2022-11-29T12:27:53.018Z,8.18
2022-11-29T12:30:19.902Z,8.12
2022-11-29T12:33:08.385Z,8.11
2022-11-29T12:35:53.774Z,8.19
2022-11-29T12:38:28.354Z,8.21
2022-11-29T12:41:16.246Z,8.24
2022-11-29T12:44:20.193Z,8.04
2022-11-29T12:50:30.517Z,8.25
2022-11-29T12:53:16.191Z,8.14
2022-11-29T12:56:10.798Z,8.07
2022-11-29T12:58:46.181Z,8.09
2022-11-29T13:01:51.037Z,8.10
2022-11-29T13:04:43.454Z,8.05
2022-11-29T13:07:30.934Z,8.06
2022-11-29T13:10:18.022Z,8.05
2022-11-29T13:13:02.914Z,8.17
2022-11-29T13:15:44.576Z,8.06
2022-11-29T13:18:22.734Z,8.03
2022-11-29T13:21:18.218Z,7.95
2022-11-29T13:24:08.887Z,8.02
2022-11-29T13:26:38.987Z,8.00
2022-11-29T13:29:07.365Z,8.05
2022-11-29T13:31:34.388Z,8.03
2022-11-29T13:34:27.248Z,8.03
2022-11-29T13:37:42.005Z,7.99
2022-11-29T13:40:37.742Z,8.00
2022-11-29T13:43:19.759Z,7.97
2022-11-29T13:45:52.483Z,8.05
2022-11-29T13:48:34.558Z,7.95
2022-11-29T13:51:22.995Z,7.97
2022-11-29T13:53:49.766Z,7.96
2022-11-29T13:56:48.745Z,7.88
2022-11-29T13:59:28.883Z,7.93
2022-11-29T14:01:56.868Z,7.96
2022-11-29T14:04:26.383Z,7.98
2022-11-29T14:07:15.300Z,8.02
2022-11-29T14:09:59.114Z,8.04
2022-11-29T14:12:28.921Z,8.01
2022-11-29T14:15:03.013Z,7.91
2022-11-29T14:17:48.172Z,7.94
2022-11-29T14:20:43.813Z,8.04
2022-11-29T14:23:16.044Z,8.06
2022-11-29T14:26:02.430Z,8.09
2022-11-29T14:28:34.269Z,8.09
2022-11-29T14:31:02.972Z,8.00
2022-11-29T14:34:12.738Z,8.01
2022-11-29T14:36:50.066Z,8.08
2022-11-29T14:39:29.854Z,8.07
2022-11-29T14:42:16.812Z,8.02
2022-11-29T14:44:52.564Z,7.99
2022-11-29T14:47:19.049Z,8.01
2022-11-29T14:49:46.707Z,8.10
2022-11-29T14:52:13.102Z,8.07
2022-11-29T14:54:57.712Z,8.02
2022-11-29T14:57:49.757Z,8.01
2022-11-29T15:00:18.968Z,7.97
2022-11-29T15:03:25.039Z,8.07
2022-11-29T15:06:06.197Z,8.04
2022-11-29T15:08:40.620Z,8.00
2022-11-29T15:11:10.202Z,7.98
2022-11-29T15:13:54.484Z,7.95
2022-11-29T15:16:44.575Z,7.93
2022-11-29T15:19:31.485Z,7.97
2022-11-29T15:22:06.350Z,7.92
2022-11-29T15:24:49.999Z,7.95
2022-11-29T15:27:18.057Z,7.99
2022-11-29T15:29:52.189Z,7.93
2022-11-29T15:32:25.993Z,7.94
2022-11-29T15:34:55.772Z,7.99
2022-11-29T15:37:31.727Z,7.88
2022-11-29T15:40:06.651Z,7.88
2022-11-29T15:42:54.003Z,7.98
2022-11-29T15:45:33.262Z,7.88
2022-11-29T15:48:15.703Z,7.90
2022-11-29T15:51:00.077Z,7.96
2022-11-29T15:53:43.217Z,7.96
2022-11-29T15:56:30.976Z,8.00
2022-11-29T15:59:02.314Z,7.93
2022-11-29T16:01:29.630Z,8.01
2022-11-29T16:03:57.318Z,7.91
2022-11-29T16:06:27.090Z,7.96
2022-11-29T16:08:54.325Z,8.00
2022-11-29T16:11:24.822Z,7.90
2022-11-29T16:14:20.877Z,8.00
2022-11-29T16:16:52.344Z,8.00
2022-11-29T16:19:24.759Z,7.94
2022-11-29T16:22:09.429Z,7.99
2022-11-29T16:24:47.306Z,8.06
2022-11-29T16:27:14.651Z,8.03
2022-11-29T16:29:45.078Z,8.09
2022-11-29T16:32:32.481Z,8.07
2022-11-29T16:35:17.472Z,8.03
2022-11-29T16:37:45.788Z,8.08
2022-11-29T16:40:27.903Z,8.04
2022-11-29T16:43:03.459Z,7.99
2022-11-29T16:45:39.785Z,7.97
2022-11-29T16:48:27.691Z,7.98
2022-11-29T16:51:09.426Z,7.98
2022-11-29T16:53:38.094Z,8.05
2022-11-29T16:56:05.736Z,8.01
2022-11-29T16:58:36.377Z,7.93
2022-11-29T17:01:19.597Z,7.90
2022-11-29T17:03:46.219Z,7.91
2022-11-29T17:06:15.851Z,7.88
2022-11-29T17:08:45.650Z,7.87
2022-11-29T17:11:12.278Z,7.79
2022-11-29T17:13:39.318Z,7.83
2022-11-29T17:16:11.998Z,7.95
2022-11-29T17:18:40.827Z,7.91
2022-11-29T17:21:16.912Z,7.92
2022-11-29T17:23:43.468Z,7.98
2022-11-29T17:26:10.264Z,8.02
2022-11-29T17:28:36.811Z,7.99
2022-11-29T17:31:09.812Z,8.01
2022-11-29T17:33:36.338Z,7.90
2022-11-29T17:36:12.762Z,7.96
2022-11-29T17:38:39.313Z,7.97
2022-11-29T17:41:17.871Z,7.99
2022-11-29T17:43:44.376Z,8.00
2022-11-29T17:46:20.986Z,7.93
2022-11-29T17:48:48.197Z,7.91
2022-11-29T17:51:43.696Z,7.88
2022-11-29T17:54:04.347Z,7.92
2022-11-29T17:56:31.303Z,7.82
2022-11-29T17:59:00.689Z,7.76
2022-11-29T18:01:29.321Z,7.78
2022-11-29T18:03:59.084Z,7.75
2022-11-29T18:06:28.405Z,7.74
2022-11-29T18:09:00.190Z,7.73
2022-11-29T18:11:40.325Z,7.75
2022-11-29T18:14:14.039Z,7.75
2022-11-29T18:16:45.264Z,7.82
2022-11-29T18:19:14.610Z,7.79
2022-11-29T18:21:42.651Z,7.75
2022-11-29T18:24:09.928Z,7.75
2022-11-29T18:26:37.792Z,7.81
2022-11-29T18:29:06.019Z,7.67
2022-11-29T18:31:35.793Z,7.69
2022-11-29T18:34:11.581Z,7.72
2022-11-29T18:36:43.903Z,7.73
2022-11-29T18:39:15.981Z,7.74
2022-11-29T18:41:44.498Z,7.73
2022-11-29T18:44:13.601Z,7.79
2022-11-29T18:46:45.050Z,7.69
2022-11-29T18:49:14.401Z,7.67
2022-11-29T18:51:45.018Z,7.69
2022-11-29T18:54:12.630Z,7.62
2022-11-29T18:56:39.415Z,7.65
2022-11-29T18:59:10.821Z,7.69
2022-11-29T19:01:43.028Z,7.69
2022-11-29T19:04:15.705Z,7.70
2022-11-29T19:06:43.024Z,7.70
2022-11-29T19:09:21.550Z,7.70
2022-11-29T19:11:51.165Z,7.67
2022-11-29T19:14:18.860Z,7.68
2022-11-29T19:16:47.621Z,7.57
2022-11-29T19:19:14.498Z,7.61
2022-11-29T19:21:41.505Z,7.64
2022-11-29T19:24:14.444Z,7.67
2022-11-29T19:26:44.790Z,7.66
2022-11-29T19:29:12.724Z,7.70
2022-11-29T19:31:39.384Z,7.72
2022-11-29T19:34:06.892Z,7.72
2022-11-29T19:36:33.917Z,7.61
2022-11-29T19:39:01.877Z,7.62
2022-11-29T19:41:33.685Z,7.62
2022-11-29T19:44:02.907Z,7.61
2022-11-29T19:46:32.330Z,7.58
2022-11-29T19:48:59.991Z,7.58
2022-11-29T19:51:28.119Z,7.52
2022-11-29T19:53:57.411Z,7.44
2022-11-29T19:56:24.423Z,7.41
2022-11-29T19:58:51.299Z,7.40
2022-11-29T20:01:22.600Z,7.40
2022-11-29T20:03:49.985Z,7.42
2022-11-29T20:06:17.735Z,7.35
2022-11-29T20:08:45.675Z,7.32
2022-11-29T20:11:16.506Z,7.29
2022-11-29T20:13:45.303Z,7.22
2022-11-29T20:16:18.374Z,7.22
2022-11-29T20:18:50.954Z,7.31
2022-11-29T20:21:25.653Z,7.28
2022-11-29T20:23:58.256Z,7.23
2022-11-29T20:26:26.889Z,7.29
2022-11-29T20:28:53.476Z,7.27
2022-11-29T20:31:22.715Z,7.13
2022-11-29T20:33:52.284Z,7.22
2022-11-29T20:36:53.011Z,7.22
2022-11-29T20:39:35.635Z,7.21
2022-11-29T20:42:23.683Z,7.15
2022-11-29T20:44:56.508Z,7.09
2022-11-29T20:47:25.856Z,7.09
2022-11-29T20:49:52.850Z,7.10
2022-11-29T20:52:28.987Z,7.11
2022-11-29T20:54:55.465Z,7.09
2022-11-29T20:57:22.054Z,7.08
2022-11-29T20:59:48.641Z,7.08
2022-11-29T21:02:18.327Z,7.01
2022-11-29T21:04:45.123Z,6.94
2022-11-29T21:07:11.929Z,6.88
2022-11-29T21:09:38.478Z,6.91
2022-11-29T21:12:05.874Z,6.90
2022-11-29T21:14:32.647Z,6.84
2022-11-29T21:16:59.597Z,6.80
2022-11-29T21:19:26.547Z,6.73
2022-11-29T21:22:14.332Z,6.77
2022-11-29T21:24:52.889Z,6.68
2022-11-29T21:27:28.629Z,6.58
2022-11-29T21:29:55.719Z,6.61
2022-11-29T21:32:25.392Z,6.57
2022-11-29T21:34:52.538Z,6.59
2022-11-29T21:37:22.790Z,6.54
2022-11-29T21:39:51.595Z,6.61
2022-11-29T21:42:18.408Z,6.67
2022-11-29T21:44:45.380Z,6.70
2022-11-29T21:47:12.663Z,6.62
2022-11-29T21:49:40.025Z,6.68
2022-11-29T21:52:06.864Z,6.69
2022-11-29T21:54:33.487Z,6.67
2022-11-29T21:57:01.589Z,6.66
2022-11-29T21:59:28.436Z,6.69
2022-11-29T22:01:55.212Z,6.68
2022-11-29T22:04:21.960Z,6.69
2022-11-29T22:06:48.371Z,6.75
2022-11-29T22:09:14.820Z,6.83
2022-11-29T22:11:42.713Z,6.87
2022-11-29T22:14:14.672Z,6.87
2022-11-29T22:16:49.211Z,6.83
2022-11-29T22:19:21.342Z,6.84
2022-11-29T22:21:53.671Z,6.86
2022-11-29T22:24:23.278Z,6.82
2022-11-29T22:26:50.878Z,6.89
2022-11-29T22:29:18.151Z,6.81
2022-11-29T22:31:47.335Z,6.82
2022-11-29T22:34:14.486Z,6.84
2022-11-29T22:36:41.689Z,6.84
2022-11-29T22:39:09.518Z,6.92
2022-11-29T22:41:38.044Z,6.95
2022-11-29T22:44:05.409Z,6.98
2022-11-29T22:46:35.276Z,6.94
2022-11-29T22:49:03.072Z,6.95
2022-11-29T22:51:35.200Z,6.95
2022-11-29T22:54:07.309Z,7.03
2022-11-29T22:56:37.165Z,6.96
2022-11-29T22:59:04.288Z,6.93
2022-11-29T23:01:33.003Z,6.93
2022-11-29T23:04:04.016Z,6.91
2022-11-29T23:06:33.676Z,6.90
2022-11-29T23:09:06.374Z,6.89
2022-11-29T23:11:33.968Z,6.92
2022-11-29T23:14:00.990Z,6.93
2022-11-29T23:16:29.923Z,6.94
2022-11-29T23:18:58.150Z,6.94
2022-11-29T23:21:25.821Z,6.97
2022-11-29T23:23:56.383Z,6.95
2022-11-29T23:26:29.344Z,6.95
2022-11-29T23:28:56.411Z,6.97
2022-11-29T23:31:24.098Z,6.94
2022-11-29T23:33:50.987Z,6.95
2022-11-29T23:36:17.893Z,6.96
2022-11-29T23:38:44.387Z,6.92
2022-11-29T23:41:11.796Z,6.93
2022-11-29T23:43:40.573Z,6.90
2022-11-29T23:46:14.405Z,6.85
2022-11-29T23:48:42.595Z,6.90
2022-11-29T23:51:09.738Z,6.91
2022-11-29T23:53:36.631Z,6.90
2022-11-29T23:56:06.361Z,6.94
2022-11-29T23:58:33.710Z,6.90
